sensor_id;sensor_type;location;lat;lon;timestamp;P1;durP1;ratioP1;P2;durP2;ratioP2
10701;SDS011;5402;50.004;8.246;2023-07-16T00:00:19;3.73;;;3.33;;
10701;SDS011;5402;50.004;8.246;2023-07-16T00:02:48;5.63;;;3.40;;
10701;SDS011;5402;50.004;8.246;2023-07-16T00:05:15;4.00;;;3.23;;
10701;SDS011;5402;50.004;8.246;2023-07-16T00:07:43;3.45;;;3.15;;
10701;SDS011;5402;50.004;8.246;2023-07-16T00:10:10;4.40;;;3.40;;
10701;SDS011;5402;50.004;8.246;2023-07-16T00:12:37;5.57;;;3.60;;
10701;SDS011;5402;50.004;8.246;2023-07-16T00:15:04;6.03;;;3.40;;
10701;SDS011;5402;50.004;8.246;2023-07-16T00:17:32;7.13;;;3.60;;
10701;SDS011;5402;50.004;8.246;2023-07-16T00:19:59;3.97;;;3.50;;
10701;SDS011;5402;50.004;8.246;2023-07-16T00:22:26;5.50;;;3.33;;
10701;SDS011;5402;50.004;8.246;2023-07-16T00:24:54;5.40;;;2.97;;
10701;SDS011;5402;50.004;8.246;2023-07-16T00:27:21;2.97;;;2.73;;
10701;SDS011;5402;50.004;8.246;2023-07-16T00:29:47;7.33;;;2.80;;
10701;SDS011;5402;50.004;8.246;2023-07-16T00:32:14;4.27;;;2.90;;
10701;SDS011;5402;50.004;8.246;2023-07-16T00:34:41;4.13;;;2.70;;
10701;SDS011;5402;50.004;8.246;2023-07-16T00:37:08;4.37;;;3.03;;
10701;SDS011;5402;50.004;8.246;2023-07-16T00:39:34;3.80;;;2.50;;
10701;SDS011;5402;50.004;8.246;2023-07-16T00:42:03;3.50;;;2.60;;
10701;SDS011;5402;50.004;8.246;2023-07-16T00:44:30;4.17;;;2.83;;
10701;SDS011;5402;50.004;8.246;2023-07-16T00:46:57;3.77;;;2.40;;
10701;SDS011;5402;50.004;8.246;2023-07-16T00:49:24;5.53;;;2.63;;
10701;SDS011;5402;50.004;8.246;2023-07-16T00:51:50;4.80;;;2.47;;
10701;SDS011;5402;50.004;8.246;2023-07-16T00:54:18;3.43;;;2.33;;
10701;SDS011;5402;50.004;8.246;2023-07-16T00:56:46;5.50;;;2.50;;
10701;SDS011;5402;50.004;8.246;2023-07-16T00:59:14;4.13;;;2.40;;
10701;SDS011;5402;50.004;8.246;2023-07-16T01:01:41;5.57;;;2.00;;
10701;SDS011;5402;50.004;8.246;2023-07-16T01:04:07;5.30;;;2.57;;
10701;SDS011;5402;50.004;8.246;2023-07-16T01:06:35;3.90;;;2.33;;
10701;SDS011;5402;50.004;8.246;2023-07-16T01:09:06;3.13;;;1.77;;
10701;SDS011;5402;50.004;8.246;2023-07-16T01:11:34;2.77;;;2.10;;
10701;SDS011;5402;50.004;8.246;2023-07-16T01:14:02;2.60;;;2.20;;
10701;SDS011;5402;50.004;8.246;2023-07-16T01:16:31;3.23;;;2.20;;
10701;SDS011;5402;50.004;8.246;2023-07-16T01:18:57;2.60;;;2.00;;
10701;SDS011;5402;50.004;8.246;2023-07-16T01:21:24;2.87;;;1.97;;
10701;SDS011;5402;50.004;8.246;2023-07-16T01:24:12;4.43;;;2.20;;
10701;SDS011;5402;50.004;8.246;2023-07-16T01:27:04;3.23;;;2.03;;
10701;SDS011;5402;50.004;8.246;2023-07-16T01:29:45;5.50;;;2.43;;
10701;SDS011;5402;50.004;8.246;2023-07-16T01:32:13;3.97;;;2.30;;
10701;SDS011;5402;50.004;8.246;2023-07-16T01:34:42;2.83;;;2.00;;
10701;SDS011;5402;50.004;8.246;2023-07-16T01:37:12;2.30;;;2.10;;
10701;SDS011;5402;50.004;8.246;2023-07-16T01:39:39;3.47;;;2.00;;
10701;SDS011;5402;50.004;8.246;2023-07-16T01:42:06;2.60;;;2.37;;
10701;SDS011;5402;50.004;8.246;2023-07-16T01:44:33;2.70;;;2.23;;
10701;SDS011;5402;50.004;8.246;2023-07-16T01:47:08;7.33;;;2.60;;
10701;SDS011;5402;50.004;8.246;2023-07-16T01:49:35;3.07;;;2.17;;
10701;SDS011;5402;50.004;8.246;2023-07-16T01:52:04;5.73;;;2.50;;
10701;SDS011;5402;50.004;8.246;2023-07-16T01:54:32;3.63;;;2.20;;
10701;SDS011;5402;50.004;8.246;2023-07-16T01:57:00;3.90;;;2.47;;
10701;SDS011;5402;50.004;8.246;2023-07-16T01:59:28;3.30;;;2.23;;
10701;SDS011;5402;50.004;8.246;2023-07-16T02:01:54;4.60;;;2.43;;
10701;SDS011;5402;50.004;8.246;2023-07-16T02:04:23;3.87;;;2.43;;
10701;SDS011;5402;50.004;8.246;2023-07-16T02:06:49;5.03;;;2.97;;
10701;SDS011;5402;50.004;8.246;2023-07-16T02:09:16;4.00;;;2.57;;
10701;SDS011;5402;50.004;8.246;2023-07-16T02:11:43;6.10;;;2.63;;
10701;SDS011;5402;50.004;8.246;2023-07-16T02:14:10;5.07;;;2.57;;
10701;SDS011;5402;50.004;8.246;2023-07-16T02:16:38;3.77;;;2.90;;
10701;SDS011;5402;50.004;8.246;2023-07-16T02:19:05;6.67;;;3.03;;
10701;SDS011;5402;50.004;8.246;2023-07-16T02:21:33;6.03;;;2.90;;
10701;SDS011;5402;50.004;8.246;2023-07-16T02:23:59;3.97;;;2.57;;
10701;SDS011;5402;50.004;8.246;2023-07-16T02:26:26;3.93;;;2.83;;
10701;SDS011;5402;50.004;8.246;2023-07-16T02:28:53;4.70;;;2.57;;
10701;SDS011;5402;50.004;8.246;2023-07-16T02:31:19;4.60;;;2.90;;
10701;SDS011;5402;50.004;8.246;2023-07-16T02:33:46;3.13;;;2.80;;
10701;SDS011;5402;50.004;8.246;2023-07-16T02:36:13;4.87;;;3.07;;
10701;SDS011;5402;50.004;8.246;2023-07-16T02:38:41;5.63;;;3.03;;
10701;SDS011;5402;50.004;8.246;2023-07-16T02:41:08;4.00;;;2.60;;
10701;SDS011;5402;50.004;8.246;2023-07-16T02:43:35;3.40;;;3.00;;
10701;SDS011;5402;50.004;8.246;2023-07-16T02:46:01;9.03;;;3.17;;
10701;SDS011;5402;50.004;8.246;2023-07-16T02:48:28;3.07;;;2.77;;
10701;SDS011;5402;50.004;8.246;2023-07-16T02:50:55;4.37;;;2.80;;
10701;SDS011;5402;50.004;8.246;2023-07-16T02:53:22;7.70;;;3.27;;
10701;SDS011;5402;50.004;8.246;2023-07-16T02:55:50;3.50;;;3.00;;
10701;SDS011;5402;50.004;8.246;2023-07-16T02:58:16;5.00;;;3.27;;
10701;SDS011;5402;50.004;8.246;2023-07-16T03:00:43;6.73;;;3.30;;
10701;SDS011;5402;50.004;8.246;2023-07-16T03:03:10;5.00;;;2.80;;
10701;SDS011;5402;50.004;8.246;2023-07-16T03:05:37;5.50;;;3.03;;
10701;SDS011;5402;50.004;8.246;2023-07-16T03:08:04;6.10;;;3.30;;
10701;SDS011;5402;50.004;8.246;2023-07-16T03:10:31;4.47;;;3.23;;
10701;SDS011;5402;50.004;8.246;2023-07-16T03:12:59;5.00;;;3.20;;
10701;SDS011;5402;50.004;8.246;2023-07-16T03:15:26;5.63;;;3.40;;
10701;SDS011;5402;50.004;8.246;2023-07-16T03:17:52;7.60;;;3.53;;
10701;SDS011;5402;50.004;8.246;2023-07-16T03:20:19;5.63;;;3.60;;
10701;SDS011;5402;50.004;8.246;2023-07-16T03:22:46;10.17;;;3.60;;
10701;SDS011;5402;50.004;8.246;2023-07-16T03:25:12;5.77;;;3.27;;
10701;SDS011;5402;50.004;8.246;2023-07-16T03:27:39;5.57;;;3.53;;
10701;SDS011;5402;50.004;8.246;2023-07-16T03:30:08;7.77;;;3.43;;
10701;SDS011;5402;50.004;8.246;2023-07-16T03:32:35;5.00;;;3.37;;
10701;SDS011;5402;50.004;8.246;2023-07-16T03:35:05;6.03;;;3.37;;
10701;SDS011;5402;50.004;8.246;2023-07-16T03:37:32;6.07;;;3.37;;
10701;SDS011;5402;50.004;8.246;2023-07-16T03:40:11;6.23;;;3.57;;
10701;SDS011;5402;50.004;8.246;2023-07-16T03:42:39;5.03;;;3.37;;
10701;SDS011;5402;50.004;8.246;2023-07-16T03:45:08;5.13;;;3.70;;
10701;SDS011;5402;50.004;8.246;2023-07-16T03:47:35;5.80;;;3.90;;
10701;SDS011;5402;50.004;8.246;2023-07-16T03:50:02;5.67;;;3.37;;
10701;SDS011;5402;50.004;8.246;2023-07-16T03:52:30;6.30;;;4.00;;
10701;SDS011;5402;50.004;8.246;2023-07-16T03:54:57;6.30;;;3.57;;
10701;SDS011;5402;50.004;8.246;2023-07-16T03:57:24;6.97;;;3.60;;
10701;SDS011;5402;50.004;8.246;2023-07-16T03:59:51;7.73;;;3.73;;
10701;SDS011;5402;50.004;8.246;2023-07-16T04:02:19;4.57;;;3.50;;
10701;SDS011;5402;50.004;8.246;2023-07-16T04:04:46;6.80;;;4.00;;
10701;SDS011;5402;50.004;8.246;2023-07-16T04:07:12;7.33;;;3.80;;
10701;SDS011;5402;50.004;8.246;2023-07-16T04:09:39;7.50;;;3.90;;
10701;SDS011;5402;50.004;8.246;2023-07-16T04:12:06;6.77;;;3.60;;
10701;SDS011;5402;50.004;8.246;2023-07-16T04:14:33;5.40;;;3.70;;
10701;SDS011;5402;50.004;8.246;2023-07-16T04:17:00;4.80;;;3.30;;
10701;SDS011;5402;50.004;8.246;2023-07-16T04:19:28;6.13;;;3.70;;
10701;SDS011;5402;50.004;8.246;2023-07-16T04:21:55;5.83;;;3.50;;
10701;SDS011;5402;50.004;8.246;2023-07-16T04:24:22;6.83;;;3.63;;
10701;SDS011;5402;50.004;8.246;2023-07-16T04:26:49;8.40;;;3.90;;
10701;SDS011;5402;50.004;8.246;2023-07-16T04:29:15;6.47;;;3.93;;
10701;SDS011;5402;50.004;8.246;2023-07-16T04:31:42;7.07;;;3.60;;
10701;SDS011;5402;50.004;8.246;2023-07-16T04:34:09;6.20;;;3.20;;
10701;SDS011;5402;50.004;8.246;2023-07-16T04:36:37;7.97;;;3.50;;
10701;SDS011;5402;50.004;8.246;2023-07-16T04:39:04;4.80;;;3.67;;
10701;SDS011;5402;50.004;8.246;2023-07-16T04:41:31;10.27;;;3.77;;
10701;SDS011;5402;50.004;8.246;2023-07-16T04:43:57;6.80;;;3.33;;
10701;SDS011;5402;50.004;8.246;2023-07-16T04:46:24;7.77;;;3.57;;
10701;SDS011;5402;50.004;8.246;2023-07-16T04:48:51;5.40;;;3.17;;
10701;SDS011;5402;50.004;8.246;2023-07-16T04:51:18;7.80;;;3.20;;
10701;SDS011;5402;50.004;8.246;2023-07-16T04:53:46;8.53;;;3.37;;
10701;SDS011;5402;50.004;8.246;2023-07-16T04:56:15;6.00;;;3.13;;
10701;SDS011;5402;50.004;8.246;2023-07-16T04:58:42;7.30;;;2.97;;
10701;SDS011;5402;50.004;8.246;2023-07-16T05:01:11;4.83;;;3.00;;
10701;SDS011;5402;50.004;8.246;2023-07-16T05:03:38;7.93;;;3.10;;
10701;SDS011;5402;50.004;8.246;2023-07-16T05:06:05;4.80;;;2.90;;
10701;SDS011;5402;50.004;8.246;2023-07-16T05:08:31;7.20;;;3.10;;
10701;SDS011;5402;50.004;8.246;2023-07-16T05:11:00;4.83;;;3.03;;
10701;SDS011;5402;50.004;8.246;2023-07-16T05:13:27;5.17;;;3.00;;
10701;SDS011;5402;50.004;8.246;2023-07-16T05:15:54;3.23;;;2.77;;
10701;SDS011;5402;50.004;8.246;2023-07-16T05:18:21;6.07;;;3.47;;
10701;SDS011;5402;50.004;8.246;2023-07-16T05:20:48;3.90;;;3.00;;
10701;SDS011;5402;50.004;8.246;2023-07-16T05:23:15;3.33;;;2.80;;
10701;SDS011;5402;50.004;8.246;2023-07-16T05:25:45;4.43;;;2.90;;
10701;SDS011;5402;50.004;8.246;2023-07-16T05:28:14;4.40;;;2.90;;
10701;SDS011;5402;50.004;8.246;2023-07-16T05:30:40;5.60;;;2.83;;
10701;SDS011;5402;50.004;8.246;2023-07-16T05:33:07;6.07;;;2.93;;
10701;SDS011;5402;50.004;8.246;2023-07-16T05:35:35;7.00;;;2.80;;
10701;SDS011;5402;50.004;8.246;2023-07-16T05:38:01;8.90;;;2.93;;
10701;SDS011;5402;50.004;8.246;2023-07-16T05:40:28;5.80;;;2.70;;
10701;SDS011;5402;50.004;8.246;2023-07-16T05:42:55;7.93;;;2.93;;
10701;SDS011;5402;50.004;8.246;2023-07-16T05:45:23;6.10;;;3.40;;
10701;SDS011;5402;50.004;8.246;2023-07-16T05:47:50;3.77;;;2.70;;
10701;SDS011;5402;50.004;8.246;2023-07-16T05:50:16;7.67;;;3.50;;
10701;SDS011;5402;50.004;8.246;2023-07-16T05:52:43;5.00;;;2.80;;
10701;SDS011;5402;50.004;8.246;2023-07-16T05:55:10;5.77;;;3.10;;
10701;SDS011;5402;50.004;8.246;2023-07-16T05:57:37;5.77;;;3.07;;
10701;SDS011;5402;50.004;8.246;2023-07-16T06:00:04;6.57;;;3.10;;
10701;SDS011;5402;50.004;8.246;2023-07-16T06:02:36;8.47;;;3.03;;
10701;SDS011;5402;50.004;8.246;2023-07-16T06:05:03;4.27;;;2.73;;
10701;SDS011;5402;50.004;8.246;2023-07-16T06:07:31;6.60;;;3.60;;
10701;SDS011;5402;50.004;8.246;2023-07-16T06:09:57;5.53;;;3.17;;
10701;SDS011;5402;50.004;8.246;2023-07-16T06:12:24;4.97;;;3.07;;
10701;SDS011;5402;50.004;8.246;2023-07-16T06:14:51;5.07;;;2.80;;
10701;SDS011;5402;50.004;8.246;2023-07-16T06:17:18;5.53;;;2.97;;
10701;SDS011;5402;50.004;8.246;2023-07-16T06:19:46;8.37;;;3.00;;
10701;SDS011;5402;50.004;8.246;2023-07-16T06:22:15;6.53;;;3.33;;
10701;SDS011;5402;50.004;8.246;2023-07-16T06:24:41;8.70;;;3.13;;
10701;SDS011;5402;50.004;8.246;2023-07-16T06:27:08;5.97;;;2.80;;
10701;SDS011;5402;50.004;8.246;2023-07-16T06:29:35;8.23;;;3.47;;
10701;SDS011;5402;50.004;8.246;2023-07-16T06:32:02;8.13;;;2.77;;
10701;SDS011;5402;50.004;8.246;2023-07-16T06:34:29;10.03;;;3.07;;
10701;SDS011;5402;50.004;8.246;2023-07-16T06:36:57;7.50;;;3.20;;
10701;SDS011;5402;50.004;8.246;2023-07-16T06:39:24;5.13;;;2.60;;
10701;SDS011;5402;50.004;8.246;2023-07-16T06:41:50;5.10;;;2.87;;
10701;SDS011;5402;50.004;8.246;2023-07-16T06:44:17;5.00;;;2.57;;
10701;SDS011;5402;50.004;8.246;2023-07-16T06:46:44;9.23;;;3.07;;
10701;SDS011;5402;50.004;8.246;2023-07-16T06:49:11;5.97;;;2.97;;
10701;SDS011;5402;50.004;8.246;2023-07-16T06:51:38;4.33;;;2.80;;
10701;SDS011;5402;50.004;8.246;2023-07-16T06:54:06;5.47;;;3.17;;
10701;SDS011;5402;50.004;8.246;2023-07-16T06:56:33;5.80;;;3.17;;
10701;SDS011;5402;50.004;8.246;2023-07-16T06:59:00;7.57;;;3.67;;
10701;SDS011;5402;50.004;8.246;2023-07-16T07:01:26;5.73;;;3.37;;
10701;SDS011;5402;50.004;8.246;2023-07-16T07:03:53;9.77;;;2.97;;
10701;SDS011;5402;50.004;8.246;2023-07-16T07:06:20;6.80;;;2.80;;
10701;SDS011;5402;50.004;8.246;2023-07-16T07:08:47;5.40;;;3.13;;
10701;SDS011;5402;50.004;8.246;2023-07-16T07:11:15;7.60;;;3.03;;
10701;SDS011;5402;50.004;8.246;2023-07-16T07:13:42;7.43;;;2.93;;
10701;SDS011;5402;50.004;8.246;2023-07-16T07:16:09;6.90;;;3.13;;
10701;SDS011;5402;50.004;8.246;2023-07-16T07:18:36;5.87;;;2.83;;
10701;SDS011;5402;50.004;8.246;2023-07-16T07:21:02;5.93;;;2.70;;
10701;SDS011;5402;50.004;8.246;2023-07-16T07:23:29;6.87;;;2.70;;
10701;SDS011;5402;50.004;8.246;2023-07-16T07:25:56;4.00;;;2.77;;
10701;SDS011;5402;50.004;8.246;2023-07-16T07:28:24;4.73;;;2.80;;
10701;SDS011;5402;50.004;8.246;2023-07-16T07:30:51;5.30;;;2.80;;
10701;SDS011;5402;50.004;8.246;2023-07-16T07:33:18;5.33;;;3.00;;
10701;SDS011;5402;50.004;8.246;2023-07-16T07:35:44;5.37;;;3.17;;
10701;SDS011;5402;50.004;8.246;2023-07-16T07:38:11;4.23;;;2.37;;
10701;SDS011;5402;50.004;8.246;2023-07-16T07:40:38;6.77;;;2.73;;
10701;SDS011;5402;50.004;8.246;2023-07-16T07:43:05;4.90;;;3.10;;
10701;SDS011;5402;50.004;8.246;2023-07-16T07:45:33;6.30;;;2.80;;
10701;SDS011;5402;50.004;8.246;2023-07-16T07:47:59;4.15;;;2.15;;
10701;SDS011;5402;50.004;8.246;2023-07-16T07:50:26;3.93;;;2.30;;
10701;SDS011;5402;50.004;8.246;2023-07-16T07:52:54;3.10;;;2.30;;
10701;SDS011;5402;50.004;8.246;2023-07-16T07:55:20;3.47;;;2.20;;
10701;SDS011;5402;50.004;8.246;2023-07-16T07:57:47;4.17;;;2.50;;
10701;SDS011;5402;50.004;8.246;2023-07-16T08:00:14;6.10;;;2.63;;
10701;SDS011;5402;50.004;8.246;2023-07-16T08:02:42;5.85;;;2.40;;
10701;SDS011;5402;50.004;8.246;2023-07-16T08:05:09;5.28;;;2.38;;
10701;SDS011;5402;50.004;8.246;2023-07-16T08:07:36;7.20;;;2.70;;
10701;SDS011;5402;50.004;8.246;2023-07-16T08:10:03;6.57;;;2.85;;
10701;SDS011;5402;50.004;8.246;2023-07-16T08:12:32;4.43;;;2.60;;
10701;SDS011;5402;50.004;8.246;2023-07-16T08:14:59;6.22;;;2.40;;
10701;SDS011;5402;50.004;8.246;2023-07-16T08:17:25;5.57;;;3.50;;
10701;SDS011;5402;50.004;8.246;2023-07-16T08:19:53;4.25;;;2.42;;
10701;SDS011;5402;50.004;8.246;2023-07-16T08:22:21;3.83;;;2.67;;
10701;SDS011;5402;50.004;8.246;2023-07-16T08:24:49;2.60;;;2.28;;
10701;SDS011;5402;50.004;8.246;2023-07-16T08:27:17;2.72;;;2.40;;
10701;SDS011;5402;50.004;8.246;2023-07-16T08:29:44;3.15;;;2.50;;
10701;SDS011;5402;50.004;8.246;2023-07-16T08:32:10;4.22;;;2.30;;
10701;SDS011;5402;50.004;8.246;2023-07-16T08:34:37;6.22;;;2.63;;
10701;SDS011;5402;50.004;8.246;2023-07-16T08:37:05;3.83;;;2.30;;
10701;SDS011;5402;50.004;8.246;2023-07-16T08:39:32;4.65;;;2.25;;
10701;SDS011;5402;50.004;8.246;2023-07-16T08:41:59;4.25;;;2.47;;
10701;SDS011;5402;50.004;8.246;2023-07-16T08:44:27;7.70;;;2.65;;
10701;SDS011;5402;50.004;8.246;2023-07-16T08:46:55;7.90;;;3.65;;
10701;SDS011;5402;50.004;8.246;2023-07-16T08:49:22;3.78;;;2.50;;
10701;SDS011;5402;50.004;8.246;2023-07-16T08:51:49;7.90;;;2.53;;
10701;SDS011;5402;50.004;8.246;2023-07-16T08:54:19;5.00;;;2.70;;
10701;SDS011;5402;50.004;8.246;2023-07-16T08:56:46;5.00;;;2.25;;
10701;SDS011;5402;50.004;8.246;2023-07-16T08:59:14;4.22;;;2.33;;
10701;SDS011;5402;50.004;8.246;2023-07-16T09:01:41;6.90;;;2.45;;
10701;SDS011;5402;50.004;8.246;2023-07-16T09:04:08;5.05;;;2.50;;
10701;SDS011;5402;50.004;8.246;2023-07-16T09:06:35;3.63;;;2.40;;
10701;SDS011;5402;50.004;8.246;2023-07-16T09:09:02;5.35;;;2.60;;
10701;SDS011;5402;50.004;8.246;2023-07-16T09:11:30;4.65;;;2.35;;
10701;SDS011;5402;50.004;8.246;2023-07-16T09:13:57;4.45;;;2.45;;
10701;SDS011;5402;50.004;8.246;2023-07-16T09:16:23;3.50;;;2.30;;
10701;SDS011;5402;50.004;8.246;2023-07-16T09:18:50;3.75;;;2.85;;
10701;SDS011;5402;50.004;8.246;2023-07-16T09:21:17;4.72;;;2.55;;
10701;SDS011;5402;50.004;8.246;2023-07-16T09:23:44;2.75;;;2.30;;
10701;SDS011;5402;50.004;8.246;2023-07-16T09:26:11;4.55;;;2.70;;
10701;SDS011;5402;50.004;8.246;2023-07-16T09:28:39;4.22;;;2.50;;
10701;SDS011;5402;50.004;8.246;2023-07-16T09:31:06;3.95;;;3.00;;
10701;SDS011;5402;50.004;8.246;2023-07-16T09:33:33;3.65;;;2.60;;
10701;SDS011;5402;50.004;8.246;2023-07-16T09:36:00;3.97;;;2.40;;
10701;SDS011;5402;50.004;8.246;2023-07-16T09:38:28;2.85;;;2.35;;
10701;SDS011;5402;50.004;8.246;2023-07-16T09:40:56;4.63;;;2.50;;
10701;SDS011;5402;50.004;8.246;2023-07-16T09:43:23;7.35;;;3.08;;
10701;SDS011;5402;50.004;8.246;2023-07-16T09:45:51;3.38;;;2.50;;
10701;SDS011;5402;50.004;8.246;2023-07-16T09:48:18;5.72;;;2.78;;
10701;SDS011;5402;50.004;8.246;2023-07-16T09:50:46;3.88;;;2.20;;
10701;SDS011;5402;50.004;8.246;2023-07-16T09:53:18;4.60;;;2.72;;
10701;SDS011;5402;50.004;8.246;2023-07-16T09:55:46;5.35;;;2.55;;
10701;SDS011;5402;50.004;8.246;2023-07-16T09:58:14;5.32;;;2.63;;
10701;SDS011;5402;50.004;8.246;2023-07-16T10:00:44;4.80;;;2.75;;
10701;SDS011;5402;50.004;8.246;2023-07-16T10:03:14;3.53;;;2.45;;
10701;SDS011;5402;50.004;8.246;2023-07-16T10:05:41;6.05;;;2.80;;
10701;SDS011;5402;50.004;8.246;2023-07-16T10:08:15;5.03;;;2.63;;
10701;SDS011;5402;50.004;8.246;2023-07-16T10:10:43;5.40;;;2.67;;
10701;SDS011;5402;50.004;8.246;2023-07-16T10:13:11;3.97;;;2.42;;
10701;SDS011;5402;50.004;8.246;2023-07-16T10:15:39;5.13;;;2.67;;
10701;SDS011;5402;50.004;8.246;2023-07-16T10:18:23;6.22;;;2.67;;
10701;SDS011;5402;50.004;8.246;2023-07-16T10:20:52;5.97;;;3.08;;
10701;SDS011;5402;50.004;8.246;2023-07-16T10:23:19;7.20;;;2.75;;
10701;SDS011;5402;50.004;8.246;2023-07-16T10:25:57;3.60;;;2.60;;
10701;SDS011;5402;50.004;8.246;2023-07-16T10:28:25;3.92;;;2.40;;
10701;SDS011;5402;50.004;8.246;2023-07-16T10:30:52;5.07;;;2.90;;
10701;SDS011;5402;50.004;8.246;2023-07-16T10:33:19;5.32;;;2.85;;
10701;SDS011;5402;50.004;8.246;2023-07-16T10:35:47;4.13;;;2.47;;
10701;SDS011;5402;50.004;8.246;2023-07-16T10:38:14;4.03;;;2.75;;
10701;SDS011;5402;50.004;8.246;2023-07-16T10:40:41;5.43;;;2.50;;
10701;SDS011;5402;50.004;8.246;2023-07-16T10:43:08;3.92;;;2.53;;
10701;SDS011;5402;50.004;8.246;2023-07-16T10:45:35;6.25;;;2.47;;
10701;SDS011;5402;50.004;8.246;2023-07-16T10:48:02;3.53;;;2.53;;
10701;SDS011;5402;50.004;8.246;2023-07-16T10:50:31;2.90;;;2.50;;
10701;SDS011;5402;50.004;8.246;2023-07-16T10:53:00;5.95;;;2.70;;
10701;SDS011;5402;50.004;8.246;2023-07-16T10:55:28;4.53;;;2.85;;
10701;SDS011;5402;50.004;8.246;2023-07-16T10:57:57;4.85;;;2.90;;
10701;SDS011;5402;50.004;8.246;2023-07-16T11:00:24;5.07;;;2.67;;
10701;SDS011;5402;50.004;8.246;2023-07-16T11:02:51;3.63;;;2.63;;
10701;SDS011;5402;50.004;8.246;2023-07-16T11:05:19;6.50;;;2.80;;
10701;SDS011;5402;50.004;8.246;2023-07-16T11:07:46;4.10;;;2.60;;
10701;SDS011;5402;50.004;8.246;2023-07-16T11:10:16;4.72;;;2.80;;
10701;SDS011;5402;50.004;8.246;2023-07-16T11:12:44;5.97;;;2.50;;
10701;SDS011;5402;50.004;8.246;2023-07-16T11:15:11;3.42;;;2.38;;
10701;SDS011;5402;50.004;8.246;2023-07-16T11:17:38;4.68;;;2.80;;
10701;SDS011;5402;50.004;8.246;2023-07-16T11:20:06;4.47;;;2.90;;
10701;SDS011;5402;50.004;8.246;2023-07-16T11:22:36;3.78;;;2.50;;
10701;SDS011;5402;50.004;8.246;2023-07-16T11:25:04;3.70;;;2.53;;
10701;SDS011;5402;50.004;8.246;2023-07-16T11:27:40;3.55;;;2.53;;
10701;SDS011;5402;50.004;8.246;2023-07-16T11:30:07;4.75;;;2.95;;
10701;SDS011;5402;50.004;8.246;2023-07-16T11:32:35;3.28;;;2.63;;
10701;SDS011;5402;50.004;8.246;2023-07-16T11:35:04;4.78;;;2.65;;
10701;SDS011;5402;50.004;8.246;2023-07-16T11:37:32;4.20;;;2.63;;
10701;SDS011;5402;50.004;8.246;2023-07-16T11:40:00;3.97;;;2.88;;
10701;SDS011;5402;50.004;8.246;2023-07-16T11:42:30;4.93;;;2.55;;
10701;SDS011;5402;50.004;8.246;2023-07-16T11:44:59;4.72;;;3.35;;
10701;SDS011;5402;50.004;8.246;2023-07-16T11:47:26;3.45;;;2.65;;
10701;SDS011;5402;50.004;8.246;2023-07-16T11:49:54;3.72;;;3.10;;
10701;SDS011;5402;50.004;8.246;2023-07-16T11:52:22;5.50;;;2.67;;
10701;SDS011;5402;50.004;8.246;2023-07-16T11:54:51;4.60;;;2.92;;
10701;SDS011;5402;50.004;8.246;2023-07-16T11:57:18;5.30;;;2.80;;
10701;SDS011;5402;50.004;8.246;2023-07-16T11:59:45;4.22;;;2.70;;
10701;SDS011;5402;50.004;8.246;2023-07-16T12:02:13;3.63;;;2.97;;
10701;SDS011;5402;50.004;8.246;2023-07-16T12:04:40;4.90;;;3.03;;
10701;SDS011;5402;50.004;8.246;2023-07-16T12:07:07;4.70;;;2.88;;
10701;SDS011;5402;50.004;8.246;2023-07-16T12:09:34;4.75;;;3.00;;
10701;SDS011;5402;50.004;8.246;2023-07-16T12:12:01;4.30;;;2.80;;
10701;SDS011;5402;50.004;8.246;2023-07-16T12:14:28;6.85;;;3.28;;
10701;SDS011;5402;50.004;8.246;2023-07-16T12:16:55;3.38;;;2.97;;
10701;SDS011;5402;50.004;8.246;2023-07-16T12:19:24;4.65;;;3.08;;
10701;SDS011;5402;50.004;8.246;2023-07-16T12:21:51;3.92;;;2.83;;
10701;SDS011;5402;50.004;8.246;2023-07-16T12:24:18;4.93;;;3.30;;
10701;SDS011;5402;50.004;8.246;2023-07-16T12:26:45;5.07;;;3.50;;
10701;SDS011;5402;50.004;8.246;2023-07-16T12:29:11;4.43;;;3.15;;
10701;SDS011;5402;50.004;8.246;2023-07-16T12:31:38;4.22;;;3.35;;
10701;SDS011;5402;50.004;8.246;2023-07-16T12:34:05;4.00;;;3.10;;
10701;SDS011;5402;50.004;8.246;2023-07-16T12:36:35;4.75;;;3.20;;
10701;SDS011;5402;50.004;8.246;2023-07-16T12:39:01;4.57;;;3.30;;
10701;SDS011;5402;50.004;8.246;2023-07-16T12:41:28;4.75;;;3.08;;
10701;SDS011;5402;50.004;8.246;2023-07-16T12:43:55;4.72;;;3.20;;
10701;SDS011;5402;50.004;8.246;2023-07-16T12:46:22;6.30;;;3.50;;
10701;SDS011;5402;50.004;8.246;2023-07-16T12:48:48;6.05;;;3.30;;
10701;SDS011;5402;50.004;8.246;2023-07-16T12:51:15;3.85;;;3.40;;
10701;SDS011;5402;50.004;8.246;2023-07-16T12:53:43;4.88;;;3.20;;
10701;SDS011;5402;50.004;8.246;2023-07-16T12:56:10;5.25;;;3.33;;
10701;SDS011;5402;50.004;8.246;2023-07-16T12:58:37;5.32;;;3.17;;
10701;SDS011;5402;50.004;8.246;2023-07-16T13:01:04;6.63;;;3.30;;
10701;SDS011;5402;50.004;8.246;2023-07-16T13:03:31;4.32;;;3.22;;
10701;SDS011;5402;50.004;8.246;2023-07-16T13:05:57;4.93;;;3.63;;
10701;SDS011;5402;50.004;8.246;2023-07-16T13:08:24;4.75;;;3.38;;
10701;SDS011;5402;50.004;8.246;2023-07-16T13:10:52;5.72;;;3.78;;
10701;SDS011;5402;50.004;8.246;2023-07-16T13:13:19;6.63;;;4.05;;
10701;SDS011;5402;50.004;8.246;2023-07-16T13:15:46;5.80;;;3.70;;
10701;SDS011;5402;50.004;8.246;2023-07-16T13:18:13;6.22;;;4.00;;
10701;SDS011;5402;50.004;8.246;2023-07-16T13:20:40;5.32;;;3.70;;
10701;SDS011;5402;50.004;8.246;2023-07-16T13:23:06;5.63;;;3.47;;
10701;SDS011;5402;50.004;8.246;2023-07-16T13:25:34;6.40;;;3.47;;
10701;SDS011;5402;50.004;8.246;2023-07-16T13:28:04;3.65;;;3.13;;
10701;SDS011;5402;50.004;8.246;2023-07-16T13:30:31;7.03;;;3.70;;
10701;SDS011;5402;50.004;8.246;2023-07-16T13:32:58;4.47;;;3.20;;
10701;SDS011;5402;50.004;8.246;2023-07-16T13:35:26;5.68;;;3.47;;
10701;SDS011;5402;50.004;8.246;2023-07-16T13:37:53;4.70;;;3.40;;
10701;SDS011;5402;50.004;8.246;2023-07-16T13:40:20;6.47;;;3.75;;
10701;SDS011;5402;50.004;8.246;2023-07-16T13:42:47;5.65;;;3.60;;
10701;SDS011;5402;50.004;8.246;2023-07-16T13:45:15;6.15;;;3.47;;
10701;SDS011;5402;50.004;8.246;2023-07-16T13:47:41;5.90;;;3.78;;
10701;SDS011;5402;50.004;8.246;2023-07-16T13:50:09;6.47;;;3.40;;
10701;SDS011;5402;50.004;8.246;2023-07-16T13:52:35;7.22;;;3.33;;
10701;SDS011;5402;50.004;8.246;2023-07-16T13:55:02;4.53;;;3.38;;
10701;SDS011;5402;50.004;8.246;2023-07-16T13:57:30;4.70;;;3.72;;
10701;SDS011;5402;50.004;8.246;2023-07-16T13:59:57;5.03;;;3.42;;
10701;SDS011;5402;50.004;8.246;2023-07-16T14:02:26;4.82;;;3.78;;
10701;SDS011;5402;50.004;8.246;2023-07-16T14:04:53;5.97;;;3.97;;
10701;SDS011;5402;50.004;8.246;2023-07-16T14:07:20;5.80;;;4.07;;
10701;SDS011;5402;50.004;8.246;2023-07-16T14:09:46;3.80;;;3.40;;
10701;SDS011;5402;50.004;8.246;2023-07-16T14:12:13;5.53;;;3.83;;
10701;SDS011;5402;50.004;8.246;2023-07-16T14:14:40;5.47;;;4.13;;
10701;SDS011;5402;50.004;8.246;2023-07-16T14:17:07;5.45;;;3.42;;
10701;SDS011;5402;50.004;8.246;2023-07-16T14:19:35;7.10;;;3.78;;
10701;SDS011;5402;50.004;8.246;2023-07-16T14:22:02;5.70;;;3.25;;
10701;SDS011;5402;50.004;8.246;2023-07-16T14:24:29;4.95;;;3.58;;
10701;SDS011;5402;50.004;8.246;2023-07-16T14:26:57;4.82;;;3.60;;
10701;SDS011;5402;50.004;8.246;2023-07-16T14:29:26;5.63;;;3.40;;
10701;SDS011;5402;50.004;8.246;2023-07-16T14:31:54;5.32;;;3.47;;
10701;SDS011;5402;50.004;8.246;2023-07-16T14:34:21;6.22;;;4.10;;
10701;SDS011;5402;50.004;8.246;2023-07-16T14:36:49;6.72;;;3.70;;
10701;SDS011;5402;50.004;8.246;2023-07-16T14:39:16;4.05;;;3.30;;
10701;SDS011;5402;50.004;8.246;2023-07-16T14:41:42;4.53;;;3.45;;
10701;SDS011;5402;50.004;8.246;2023-07-16T14:44:09;7.28;;;3.95;;
10701;SDS011;5402;50.004;8.246;2023-07-16T14:46:36;5.93;;;4.07;;
10701;SDS011;5402;50.004;8.246;2023-07-16T14:49:03;5.40;;;3.60;;
10701;SDS011;5402;50.004;8.246;2023-07-16T14:51:31;9.13;;;3.95;;
10701;SDS011;5402;50.004;8.246;2023-07-16T14:54:05;5.63;;;3.33;;
10701;SDS011;5402;50.004;8.246;2023-07-16T14:56:32;5.72;;;3.75;;
10701;SDS011;5402;50.004;8.246;2023-07-16T14:58:59;6.45;;;3.42;;
10701;SDS011;5402;50.004;8.246;2023-07-16T15:01:26;5.85;;;4.13;;